Terminal Aerodrome Forecast
Issued by NWS Sioux Falls, SD

Home | Current Version | Previous Version | Text Only | Print | Product List | Glossary On
Versions: 1 2 3 4 5 6 7 8 9 10 11 12 13 14 15 16 17 18 19 20 21 22 23 24 25 26 27 28 29 30 31 32 33
000
FTUS43 KFSD 042330
TAFSUX
TAF
KSUX 042330Z 0500/0524 11014KT P6SM -SHRA FEW050 OVC090
     FM050130 08011KT P6SM BKN040 OVC120
     FM050800 07009KT 6SM -SHRA OVC020
     FM051800 12013KT P6SM -SHRA OVC015=

USA.gov is the U.S. government's official web portal to all federal, state and local government web resources and services.